sensor_id;sensor_type;location;lat;lon;timestamp;P1;durP1;ratioP1;P2;durP2;ratioP2
54743;SDS011;40639;53.170;6.728;2024-01-06T00:02:10;16.73;;;9.45;;
54743;SDS011;40639;53.170;6.728;2024-01-06T00:04:36;14.88;;;8.50;;
54743;SDS011;40639;53.170;6.728;2024-01-06T00:07:02;14.75;;;8.57;;
54743;SDS011;40639;53.170;6.728;2024-01-06T00:09:28;15.57;;;9.15;;
54743;SDS011;40639;53.170;6.728;2024-01-06T00:11:54;16.13;;;8.35;;
54743;SDS011;40639;53.170;6.728;2024-01-06T00:14:20;16.08;;;9.00;;
54743;SDS011;40639;53.170;6.728;2024-01-06T00:16:46;15.82;;;8.77;;
54743;SDS011;40639;53.170;6.728;2024-01-06T00:19:13;13.85;;;8.32;;
54743;SDS011;40639;53.170;6.728;2024-01-06T00:21:39;13.90;;;8.23;;
54743;SDS011;40639;53.170;6.728;2024-01-06T00:24:05;11.02;;;6.82;;
54743;SDS011;40639;53.170;6.728;2024-01-06T00:26:31;15.25;;;7.47;;
54743;SDS011;40639;53.170;6.728;2024-01-06T00:28:57;12.90;;;7.65;;
54743;SDS011;40639;53.170;6.728;2024-01-06T00:31:23;11.20;;;6.97;;
54743;SDS011;40639;53.170;6.728;2024-01-06T00:33:50;13.15;;;7.50;;
54743;SDS011;40639;53.170;6.728;2024-01-06T00:36:16;11.35;;;7.15;;
54743;SDS011;40639;53.170;6.728;2024-01-06T00:38:42;12.48;;;7.10;;
54743;SDS011;40639;53.170;6.728;2024-01-06T00:41:08;12.73;;;7.38;;
54743;SDS011;40639;53.170;6.728;2024-01-06T00:43:34;11.90;;;7.30;;
54743;SDS011;40639;53.170;6.728;2024-01-06T00:46:00;11.48;;;6.68;;
54743;SDS011;40639;53.170;6.728;2024-01-06T00:48:26;10.40;;;6.47;;
54743;SDS011;40639;53.170;6.728;2024-01-06T00:50:52;13.05;;;7.78;;
54743;SDS011;40639;53.170;6.728;2024-01-06T00:53:18;13.23;;;7.55;;
54743;SDS011;40639;53.170;6.728;2024-01-06T00:55:45;11.13;;;6.90;;
54743;SDS011;40639;53.170;6.728;2024-01-06T00:58:11;12.63;;;7.20;;
54743;SDS011;40639;53.170;6.728;2024-01-06T01:00:38;12.43;;;6.95;;
54743;SDS011;40639;53.170;6.728;2024-01-06T01:03:04;11.80;;;6.80;;
54743;SDS011;40639;53.170;6.728;2024-01-06T01:05:30;11.80;;;7.10;;
54743;SDS011;40639;53.170;6.728;2024-01-06T01:07:56;13.50;;;7.80;;
54743;SDS011;40639;53.170;6.728;2024-01-06T01:10:23;16.15;;;8.32;;
54743;SDS011;40639;53.170;6.728;2024-01-06T01:12:49;14.02;;;7.80;;
54743;SDS011;40639;53.170;6.728;2024-01-06T01:15:15;13.38;;;7.90;;
54743;SDS011;40639;53.170;6.728;2024-01-06T01:17:41;11.60;;;6.95;;
54743;SDS011;40639;53.170;6.728;2024-01-06T01:20:08;12.10;;;6.47;;
54743;SDS011;40639;53.170;6.728;2024-01-06T01:22:34;10.88;;;6.57;;
54743;SDS011;40639;53.170;6.728;2024-01-06T01:25:00;14.15;;;7.22;;
54743;SDS011;40639;53.170;6.728;2024-01-06T01:27:30;12.13;;;6.78;;
54743;SDS011;40639;53.170;6.728;2024-01-06T01:29:56;12.68;;;6.93;;
54743;SDS011;40639;53.170;6.728;2024-01-06T01:32:22;13.38;;;6.75;;
54743;SDS011;40639;53.170;6.728;2024-01-06T01:34:50;11.65;;;6.03;;
54743;SDS011;40639;53.170;6.728;2024-01-06T01:37:16;11.38;;;6.20;;
54743;SDS011;40639;53.170;6.728;2024-01-06T01:39:42;12.77;;;6.82;;
54743;SDS011;40639;53.170;6.728;2024-01-06T01:42:08;9.85;;;5.72;;
54743;SDS011;40639;53.170;6.728;2024-01-06T01:44:35;12.25;;;6.85;;
54743;SDS011;40639;53.170;6.728;2024-01-06T01:47:02;12.30;;;6.38;;
54743;SDS011;40639;53.170;6.728;2024-01-06T01:49:29;11.02;;;6.07;;
54743;SDS011;40639;53.170;6.728;2024-01-06T01:51:55;12.07;;;6.80;;
54743;SDS011;40639;53.170;6.728;2024-01-06T01:54:21;13.13;;;7.13;;
54743;SDS011;40639;53.170;6.728;2024-01-06T01:56:47;12.13;;;6.72;;
54743;SDS011;40639;53.170;6.728;2024-01-06T01:59:14;12.55;;;6.88;;
54743;SDS011;40639;53.170;6.728;2024-01-06T02:01:44;11.73;;;6.82;;
54743;SDS011;40639;53.170;6.728;2024-01-06T02:04:10;13.60;;;7.05;;
54743;SDS011;40639;53.170;6.728;2024-01-06T02:06:36;12.02;;;6.88;;
54743;SDS011;40639;53.170;6.728;2024-01-06T02:09:03;13.15;;;7.63;;
54743;SDS011;40639;53.170;6.728;2024-01-06T02:11:29;11.35;;;6.63;;
54743;SDS011;40639;53.170;6.728;2024-01-06T02:13:55;12.23;;;6.95;;
54743;SDS011;40639;53.170;6.728;2024-01-06T02:16:21;12.55;;;6.75;;
54743;SDS011;40639;53.170;6.728;2024-01-06T02:18:47;13.50;;;7.65;;
54743;SDS011;40639;53.170;6.728;2024-01-06T02:21:14;12.70;;;7.07;;
54743;SDS011;40639;53.170;6.728;2024-01-06T02:23:40;11.95;;;6.72;;
54743;SDS011;40639;53.170;6.728;2024-01-06T02:26:06;11.57;;;6.50;;
54743;SDS011;40639;53.170;6.728;2024-01-06T02:28:32;13.38;;;7.50;;
54743;SDS011;40639;53.170;6.728;2024-01-06T02:30:59;12.82;;;7.47;;
54743;SDS011;40639;53.170;6.728;2024-01-06T02:33:25;12.65;;;7.18;;
54743;SDS011;40639;53.170;6.728;2024-01-06T02:35:51;14.43;;;7.85;;
54743;SDS011;40639;53.170;6.728;2024-01-06T02:38:17;12.73;;;6.80;;
54743;SDS011;40639;53.170;6.728;2024-01-06T02:40:43;10.40;;;6.35;;
54743;SDS011;40639;53.170;6.728;2024-01-06T02:43:09;12.32;;;7.22;;
54743;SDS011;40639;53.170;6.728;2024-01-06T02:45:35;12.43;;;7.35;;
54743;SDS011;40639;53.170;6.728;2024-01-06T02:48:02;18.70;;;7.68;;
54743;SDS011;40639;53.170;6.728;2024-01-06T02:50:28;15.07;;;7.85;;
54743;SDS011;40639;53.170;6.728;2024-01-06T02:52:54;14.73;;;7.57;;
54743;SDS011;40639;53.170;6.728;2024-01-06T02:55:20;12.85;;;7.53;;
54743;SDS011;40639;53.170;6.728;2024-01-06T02:57:46;15.07;;;8.35;;
54743;SDS011;40639;53.170;6.728;2024-01-06T03:00:12;14.45;;;7.57;;
54743;SDS011;40639;53.170;6.728;2024-01-06T03:02:38;15.20;;;8.15;;
54743;SDS011;40639;53.170;6.728;2024-01-06T03:05:08;15.38;;;7.97;;
54743;SDS011;40639;53.170;6.728;2024-01-06T03:07:34;13.52;;;7.22;;
54743;SDS011;40639;53.170;6.728;2024-01-06T03:10:00;12.75;;;7.05;;
54743;SDS011;40639;53.170;6.728;2024-01-06T03:12:27;14.77;;;7.75;;
54743;SDS011;40639;53.170;6.728;2024-01-06T03:14:53;15.88;;;8.23;;
54743;SDS011;40639;53.170;6.728;2024-01-06T03:17:20;14.98;;;8.07;;
54743;SDS011;40639;53.170;6.728;2024-01-06T03:19:46;16.90;;;8.10;;
54743;SDS011;40639;53.170;6.728;2024-01-06T03:22:12;14.30;;;7.90;;
54743;SDS011;40639;53.170;6.728;2024-01-06T03:24:39;13.55;;;7.63;;
54743;SDS011;40639;53.170;6.728;2024-01-06T03:27:05;15.70;;;7.70;;
54743;SDS011;40639;53.170;6.728;2024-01-06T03:29:32;16.05;;;8.07;;
54743;SDS011;40639;53.170;6.728;2024-01-06T03:31:58;15.43;;;8.20;;
54743;SDS011;40639;53.170;6.728;2024-01-06T03:34:24;13.13;;;7.30;;
54743;SDS011;40639;53.170;6.728;2024-01-06T03:36:50;11.90;;;7.38;;
54743;SDS011;40639;53.170;6.728;2024-01-06T03:39:16;14.77;;;7.95;;
54743;SDS011;40639;53.170;6.728;2024-01-06T03:41:42;16.20;;;8.90;;
54743;SDS011;40639;53.170;6.728;2024-01-06T03:44:08;15.25;;;8.40;;
54743;SDS011;40639;53.170;6.728;2024-01-06T03:46:34;15.05;;;7.80;;
54743;SDS011;40639;53.170;6.728;2024-01-06T03:49:01;17.40;;;8.55;;
54743;SDS011;40639;53.170;6.728;2024-01-06T03:51:27;13.70;;;7.55;;
54743;SDS011;40639;53.170;6.728;2024-01-06T03:53:53;15.50;;;7.75;;
54743;SDS011;40639;53.170;6.728;2024-01-06T03:56:19;16.73;;;8.15;;
54743;SDS011;40639;53.170;6.728;2024-01-06T03:58:45;14.32;;;7.97;;
54743;SDS011;40639;53.170;6.728;2024-01-06T04:01:12;12.30;;;6.63;;
54743;SDS011;40639;53.170;6.728;2024-01-06T04:03:38;12.68;;;6.97;;
54743;SDS011;40639;53.170;6.728;2024-01-06T04:06:07;13.95;;;7.63;;
54743;SDS011;40639;53.170;6.728;2024-01-06T04:08:41;12.32;;;6.55;;
54743;SDS011;40639;53.170;6.728;2024-01-06T04:11:07;10.52;;;5.88;;
54743;SDS011;40639;53.170;6.728;2024-01-06T04:13:33;12.32;;;6.13;;
54743;SDS011;40639;53.170;6.728;2024-01-06T04:15:59;14.13;;;6.82;;
54743;SDS011;40639;53.170;6.728;2024-01-06T04:18:25;11.85;;;6.07;;
54743;SDS011;40639;53.170;6.728;2024-01-06T04:20:51;13.23;;;6.57;;
54743;SDS011;40639;53.170;6.728;2024-01-06T04:23:18;12.63;;;6.07;;
54743;SDS011;40639;53.170;6.728;2024-01-06T04:25:44;11.68;;;6.00;;
54743;SDS011;40639;53.170;6.728;2024-01-06T04:28:10;11.60;;;6.57;;
54743;SDS011;40639;53.170;6.728;2024-01-06T04:30:36;12.45;;;6.97;;
54743;SDS011;40639;53.170;6.728;2024-01-06T04:33:02;11.70;;;6.53;;
54743;SDS011;40639;53.170;6.728;2024-01-06T04:35:28;11.45;;;6.53;;
54743;SDS011;40639;53.170;6.728;2024-01-06T04:37:54;16.00;;;7.10;;
54743;SDS011;40639;53.170;6.728;2024-01-06T04:40:20;11.27;;;6.30;;
54743;SDS011;40639;53.170;6.728;2024-01-06T04:42:46;12.15;;;7.13;;
54743;SDS011;40639;53.170;6.728;2024-01-06T04:45:13;11.80;;;6.38;;
54743;SDS011;40639;53.170;6.728;2024-01-06T04:47:39;11.35;;;6.68;;
54743;SDS011;40639;53.170;6.728;2024-01-06T04:50:05;12.07;;;6.88;;
54743;SDS011;40639;53.170;6.728;2024-01-06T04:52:31;12.73;;;7.45;;
54743;SDS011;40639;53.170;6.728;2024-01-06T04:54:57;12.90;;;6.82;;
54743;SDS011;40639;53.170;6.728;2024-01-06T04:57:23;12.88;;;6.65;;
54743;SDS011;40639;53.170;6.728;2024-01-06T04:59:50;14.38;;;7.25;;
54743;SDS011;40639;53.170;6.728;2024-01-06T05:02:16;14.38;;;7.75;;
54743;SDS011;40639;53.170;6.728;2024-01-06T05:04:42;12.70;;;6.72;;
54743;SDS011;40639;53.170;6.728;2024-01-06T05:07:08;18.52;;;7.57;;
54743;SDS011;40639;53.170;6.728;2024-01-06T05:09:34;14.30;;;7.28;;
54743;SDS011;40639;53.170;6.728;2024-01-06T05:12:01;11.60;;;6.82;;
54743;SDS011;40639;53.170;6.728;2024-01-06T05:14:27;12.20;;;6.63;;
54743;SDS011;40639;53.170;6.728;2024-01-06T05:16:53;10.43;;;5.90;;
54743;SDS011;40639;53.170;6.728;2024-01-06T05:19:19;11.75;;;6.10;;
54743;SDS011;40639;53.170;6.728;2024-01-06T05:21:49;10.98;;;6.32;;
54743;SDS011;40639;53.170;6.728;2024-01-06T05:24:15;12.10;;;6.50;;
54743;SDS011;40639;53.170;6.728;2024-01-06T05:26:41;11.15;;;6.05;;
54743;SDS011;40639;53.170;6.728;2024-01-06T05:29:07;13.32;;;6.47;;
54743;SDS011;40639;53.170;6.728;2024-01-06T05:31:34;12.50;;;6.93;;
54743;SDS011;40639;53.170;6.728;2024-01-06T05:34:00;12.13;;;6.78;;
54743;SDS011;40639;53.170;6.728;2024-01-06T05:36:26;13.00;;;7.10;;
54743;SDS011;40639;53.170;6.728;2024-01-06T05:38:52;12.82;;;7.43;;
54743;SDS011;40639;53.170;6.728;2024-01-06T05:41:18;12.40;;;6.93;;
54743;SDS011;40639;53.170;6.728;2024-01-06T05:43:44;11.45;;;5.85;;
54743;SDS011;40639;53.170;6.728;2024-01-06T05:46:10;12.60;;;6.82;;
54743;SDS011;40639;53.170;6.728;2024-01-06T05:48:36;11.07;;;6.30;;
54743;SDS011;40639;53.170;6.728;2024-01-06T05:51:06;10.15;;;6.10;;
54743;SDS011;40639;53.170;6.728;2024-01-06T05:53:32;9.95;;;5.72;;
54743;SDS011;40639;53.170;6.728;2024-01-06T05:55:58;10.60;;;5.80;;
54743;SDS011;40639;53.170;6.728;2024-01-06T05:58:24;10.73;;;6.03;;
54743;SDS011;40639;53.170;6.728;2024-01-06T06:00:50;12.07;;;6.65;;
54743;SDS011;40639;53.170;6.728;2024-01-06T06:03:16;12.45;;;6.78;;
54743;SDS011;40639;53.170;6.728;2024-01-06T06:05:42;13.40;;;7.03;;
54743;SDS011;40639;53.170;6.728;2024-01-06T06:08:10;11.00;;;6.72;;
54743;SDS011;40639;53.170;6.728;2024-01-06T06:10:36;13.48;;;7.18;;
54743;SDS011;40639;53.170;6.728;2024-01-06T06:13:25;12.23;;;7.40;;
54743;SDS011;40639;53.170;6.728;2024-01-06T06:15:51;11.63;;;6.30;;
54743;SDS011;40639;53.170;6.728;2024-01-06T06:18:18;15.18;;;8.07;;
54743;SDS011;40639;53.170;6.728;2024-01-06T06:20:44;13.32;;;7.40;;
54743;SDS011;40639;53.170;6.728;2024-01-06T06:23:10;14.57;;;8.23;;
54743;SDS011;40639;53.170;6.728;2024-01-06T06:25:38;13.07;;;6.70;;
54743;SDS011;40639;53.170;6.728;2024-01-06T06:28:04;13.18;;;7.50;;
54743;SDS011;40639;53.170;6.728;2024-01-06T06:30:31;12.82;;;7.63;;
54743;SDS011;40639;53.170;6.728;2024-01-06T06:32:57;15.55;;;7.78;;
54743;SDS011;40639;53.170;6.728;2024-01-06T06:35:24;15.60;;;8.40;;
54743;SDS011;40639;53.170;6.728;2024-01-06T06:37:50;11.90;;;7.00;;
54743;SDS011;40639;53.170;6.728;2024-01-06T06:40:16;11.00;;;6.28;;
54743;SDS011;40639;53.170;6.728;2024-01-06T06:42:42;11.70;;;6.40;;
54743;SDS011;40639;53.170;6.728;2024-01-06T06:45:08;11.85;;;6.80;;
54743;SDS011;40639;53.170;6.728;2024-01-06T06:47:36;12.68;;;6.65;;
54743;SDS011;40639;53.170;6.728;2024-01-06T06:50:03;12.48;;;6.60;;
54743;SDS011;40639;53.170;6.728;2024-01-06T06:52:29;11.60;;;6.63;;
54743;SDS011;40639;53.170;6.728;2024-01-06T06:54:55;11.63;;;7.07;;
54743;SDS011;40639;53.170;6.728;2024-01-06T06:57:21;12.07;;;7.35;;
54743;SDS011;40639;53.170;6.728;2024-01-06T06:59:48;12.35;;;6.65;;
54743;SDS011;40639;53.170;6.728;2024-01-06T07:02:15;11.52;;;6.68;;
54743;SDS011;40639;53.170;6.728;2024-01-06T07:04:41;10.45;;;7.07;;
54743;SDS011;40639;53.170;6.728;2024-01-06T07:07:07;12.82;;;7.05;;
54743;SDS011;40639;53.170;6.728;2024-01-06T07:09:33;12.40;;;7.20;;
54743;SDS011;40639;53.170;6.728;2024-01-06T07:11:59;12.85;;;7.35;;
54743;SDS011;40639;53.170;6.728;2024-01-06T07:14:25;11.63;;;6.70;;
54743;SDS011;40639;53.170;6.728;2024-01-06T07:16:52;13.48;;;7.50;;
54743;SDS011;40639;53.170;6.728;2024-01-06T07:19:18;13.88;;;7.85;;
54743;SDS011;40639;53.170;6.728;2024-01-06T07:21:44;13.27;;;7.28;;
54743;SDS011;40639;53.170;6.728;2024-01-06T07:24:10;12.23;;;7.00;;
54743;SDS011;40639;53.170;6.728;2024-01-06T07:26:36;14.77;;;7.53;;
54743;SDS011;40639;53.170;6.728;2024-01-06T07:29:02;13.32;;;6.82;;
54743;SDS011;40639;53.170;6.728;2024-01-06T07:31:28;10.95;;;6.50;;
54743;SDS011;40639;53.170;6.728;2024-01-06T07:33:54;12.10;;;6.80;;
54743;SDS011;40639;53.170;6.728;2024-01-06T07:36:21;12.48;;;7.22;;
54743;SDS011;40639;53.170;6.728;2024-01-06T07:38:47;12.68;;;7.30;;
54743;SDS011;40639;53.170;6.728;2024-01-06T07:41:13;12.50;;;6.82;;
54743;SDS011;40639;53.170;6.728;2024-01-06T07:43:39;11.07;;;6.82;;
54743;SDS011;40639;53.170;6.728;2024-01-06T07:46:05;11.38;;;6.70;;
54743;SDS011;40639;53.170;6.728;2024-01-06T07:48:32;11.65;;;6.55;;
54743;SDS011;40639;53.170;6.728;2024-01-06T07:50:58;12.68;;;6.90;;
54743;SDS011;40639;53.170;6.728;2024-01-06T07:53:24;11.10;;;6.50;;
54743;SDS011;40639;53.170;6.728;2024-01-06T07:55:50;13.07;;;7.38;;
54743;SDS011;40639;53.170;6.728;2024-01-06T07:58:16;11.88;;;7.28;;
54743;SDS011;40639;53.170;6.728;2024-01-06T08:00:42;14.00;;;7.32;;
54743;SDS011;40639;53.170;6.728;2024-01-06T08:03:09;11.60;;;6.95;;
54743;SDS011;40639;53.170;6.728;2024-01-06T08:05:36;12.55;;;7.13;;
54743;SDS011;40639;53.170;6.728;2024-01-06T08:08:03;12.00;;;7.60;;
54743;SDS011;40639;53.170;6.728;2024-01-06T08:10:29;13.82;;;7.75;;
54743;SDS011;40639;53.170;6.728;2024-01-06T08:12:56;13.45;;;8.15;;
54743;SDS011;40639;53.170;6.728;2024-01-06T08:15:22;14.95;;;8.65;;
54743;SDS011;40639;53.170;6.728;2024-01-06T08:17:48;15.52;;;9.13;;
54743;SDS011;40639;53.170;6.728;2024-01-06T08:20:14;14.98;;;9.07;;
54743;SDS011;40639;53.170;6.728;2024-01-06T08:22:40;15.13;;;8.95;;
54743;SDS011;40639;53.170;6.728;2024-01-06T08:25:07;13.80;;;7.95;;
54743;SDS011;40639;53.170;6.728;2024-01-06T08:27:33;13.40;;;9.23;;
54743;SDS011;40639;53.170;6.728;2024-01-06T08:30:00;13.70;;;7.57;;
54743;SDS011;40639;53.170;6.728;2024-01-06T08:32:26;14.25;;;7.80;;
54743;SDS011;40639;53.170;6.728;2024-01-06T08:34:52;14.68;;;8.63;;
54743;SDS011;40639;53.170;6.728;2024-01-06T08:37:19;13.88;;;8.27;;
54743;SDS011;40639;53.170;6.728;2024-01-06T08:39:45;15.02;;;8.70;;
54743;SDS011;40639;53.170;6.728;2024-01-06T08:42:11;14.57;;;7.85;;
54743;SDS011;40639;53.170;6.728;2024-01-06T08:44:37;15.50;;;8.15;;
54743;SDS011;40639;53.170;6.728;2024-01-06T08:47:03;14.15;;;8.27;;
54743;SDS011;40639;53.170;6.728;2024-01-06T08:49:30;12.75;;;7.40;;
54743;SDS011;40639;53.170;6.728;2024-01-06T08:51:56;13.27;;;7.55;;
54743;SDS011;40639;53.170;6.728;2024-01-06T08:54:22;12.98;;;7.40;;
54743;SDS011;40639;53.170;6.728;2024-01-06T08:56:48;15.00;;;8.35;;
54743;SDS011;40639;53.170;6.728;2024-01-06T08:59:15;15.52;;;7.85;;
54743;SDS011;40639;53.170;6.728;2024-01-06T09:01:41;11.27;;;7.03;;
54743;SDS011;40639;53.170;6.728;2024-01-06T09:04:07;14.40;;;7.78;;
54743;SDS011;40639;53.170;6.728;2024-01-06T09:06:36;14.07;;;8.15;;
54743;SDS011;40639;53.170;6.728;2024-01-06T09:09:02;13.68;;;8.18;;
54743;SDS011;40639;53.170;6.728;2024-01-06T09:11:29;15.48;;;8.55;;
54743;SDS011;40639;53.170;6.728;2024-01-06T09:13:55;15.32;;;8.15;;
54743;SDS011;40639;53.170;6.728;2024-01-06T09:16:21;15.15;;;9.55;;
54743;SDS011;40639;53.170;6.728;2024-01-06T09:18:47;13.93;;;8.38;;
54743;SDS011;40639;53.170;6.728;2024-01-06T09:21:14;14.45;;;8.52;;
54743;SDS011;40639;53.170;6.728;2024-01-06T09:23:42;14.82;;;8.88;;
54743;SDS011;40639;53.170;6.728;2024-01-06T09:26:09;13.82;;;8.52;;
54743;SDS011;40639;53.170;6.728;2024-01-06T09:28:35;12.27;;;7.20;;
54743;SDS011;40639;53.170;6.728;2024-01-06T09:31:01;15.38;;;7.53;;
54743;SDS011;40639;53.170;6.728;2024-01-06T09:33:27;13.50;;;7.75;;
54743;SDS011;40639;53.170;6.728;2024-01-06T09:35:53;15.27;;;8.07;;
54743;SDS011;40639;53.170;6.728;2024-01-06T09:38:19;13.95;;;7.90;;
54743;SDS011;40639;53.170;6.728;2024-01-06T09:40:46;14.73;;;7.80;;
54743;SDS011;40639;53.170;6.728;2024-01-06T09:43:13;11.93;;;7.25;;
54743;SDS011;40639;53.170;6.728;2024-01-06T09:45:39;15.82;;;8.55;;
54743;SDS011;40639;53.170;6.728;2024-01-06T09:48:12;15.90;;;8.13;;
54743;SDS011;40639;53.170;6.728;2024-01-06T09:50:42;13.98;;;7.95;;
54743;SDS011;40639;53.170;6.728;2024-01-06T09:53:10;14.23;;;8.52;;
54743;SDS011;40639;53.170;6.728;2024-01-06T09:55:37;15.27;;;8.65;;
54743;SDS011;40639;53.170;6.728;2024-01-06T09:58:03;13.95;;;8.43;;
54743;SDS011;40639;53.170;6.728;2024-01-06T10:00:31;14.43;;;8.15;;
54743;SDS011;40639;53.170;6.728;2024-01-06T10:02:57;17.13;;;9.32;;
54743;SDS011;40639;53.170;6.728;2024-01-06T10:05:23;12.57;;;6.75;;
54743;SDS011;40639;53.170;6.728;2024-01-06T10:07:49;14.02;;;7.40;;
54743;SDS011;40639;53.170;6.728;2024-01-06T10:10:16;14.95;;;7.38;;
54743;SDS011;40639;53.170;6.728;2024-01-06T10:12:42;14.70;;;8.15;;
54743;SDS011;40639;53.170;6.728;2024-01-06T10:15:09;14.27;;;7.80;;
54743;SDS011;40639;53.170;6.728;2024-01-06T10:17:39;11.30;;;6.90;;
54743;SDS011;40639;53.170;6.728;2024-01-06T10:20:06;12.65;;;7.75;;
54743;SDS011;40639;53.170;6.728;2024-01-06T10:22:32;14.45;;;6.97;;
54743;SDS011;40639;53.170;6.728;2024-01-06T10:25:10;12.38;;;7.10;;
54743;SDS011;40639;53.170;6.728;2024-01-06T10:27:40;13.18;;;6.80;;
54743;SDS011;40639;53.170;6.728;2024-01-06T10:30:12;13.10;;;7.30;;
54743;SDS011;40639;53.170;6.728;2024-01-06T10:32:43;12.68;;;6.90;;
54743;SDS011;40639;53.170;6.728;2024-01-06T10:35:09;11.60;;;6.90;;
54743;SDS011;40639;53.170;6.728;2024-01-06T10:37:35;11.70;;;6.72;;
54743;SDS011;40639;53.170;6.728;2024-01-06T10:40:06;11.65;;;6.60;;
54743;SDS011;40639;53.170;6.728;2024-01-06T10:42:32;12.18;;;6.75;;
54743;SDS011;40639;53.170;6.728;2024-01-06T10:44:59;11.73;;;6.88;;
54743;SDS011;40639;53.170;6.728;2024-01-06T10:47:25;13.77;;;7.32;;
54743;SDS011;40639;53.170;6.728;2024-01-06T10:49:55;16.77;;;8.18;;
54743;SDS011;40639;53.170;6.728;2024-01-06T10:52:23;13.57;;;7.57;;
54743;SDS011;40639;53.170;6.728;2024-01-06T10:54:49;12.20;;;7.43;;
54743;SDS011;40639;53.170;6.728;2024-01-06T10:57:17;12.85;;;7.47;;
54743;SDS011;40639;53.170;6.728;2024-01-06T10:59:44;14.35;;;6.60;;
54743;SDS011;40639;53.170;6.728;2024-01-06T11:02:11;12.10;;;7.13;;
54743;SDS011;40639;53.170;6.728;2024-01-06T11:04:38;12.50;;;6.38;;
54743;SDS011;40639;53.170;6.728;2024-01-06T11:07:05;12.13;;;6.43;;
54743;SDS011;40639;53.170;6.728;2024-01-06T11:09:32;12.68;;;6.80;;
54743;SDS011;40639;53.170;6.728;2024-01-06T11:12:00;12.02;;;6.18;;
54743;SDS011;40639;53.170;6.728;2024-01-06T11:14:27;11.02;;;6.55;;
54743;SDS011;40639;53.170;6.728;2024-01-06T11:16:53;11.93;;;7.25;;
54743;SDS011;40639;53.170;6.728;2024-01-06T11:22:20;11.50;;;6.53;;
54743;SDS011;40639;53.170;6.728;2024-01-06T11:24:47;13.95;;;7.28;;
54743;SDS011;40639;53.170;6.728;2024-01-06T11:27:20;11.68;;;6.85;;
54743;SDS011;40639;53.170;6.728;2024-01-06T11:29:47;13.55;;;7.28;;
54743;SDS011;40639;53.170;6.728;2024-01-06T11:34:47;11.27;;;7.03;;
54743;SDS011;40639;53.170;6.728;2024-01-06T11:37:14;13.40;;;7.38;;
54743;SDS011;40639;53.170;6.728;2024-01-06T11:39:42;14.90;;;7.75;;
54743;SDS011;40639;53.170;6.728;2024-01-06T11:42:12;16.15;;;8.13;;
54743;SDS011;40639;53.170;6.728;2024-01-06T11:44:38;13.77;;;8.02;;
54743;SDS011;40639;53.170;6.728;2024-01-06T11:47:04;14.93;;;7.97;;
54743;SDS011;40639;53.170;6.728;2024-01-06T11:49:31;14.35;;;7.93;;
54743;SDS011;40639;53.170;6.728;2024-01-06T11:51:57;14.82;;;7.68;;
54743;SDS011;40639;53.170;6.728;2024-01-06T11:54:24;11.57;;;7.13;;
54743;SDS011;40639;53.170;6.728;2024-01-06T11:56:50;13.43;;;7.78;;
54743;SDS011;40639;53.170;6.728;2024-01-06T11:59:21;12.52;;;7.22;;
54743;SDS011;40639;53.170;6.728;2024-01-06T12:01:47;12.25;;;7.45;;
54743;SDS011;40639;53.170;6.728;2024-01-06T12:04:13;11.82;;;7.07;;
54743;SDS011;40639;53.170;6.728;2024-01-06T12:06:43;12.57;;;6.82;;
54743;SDS011;40639;53.170;6.728;2024-01-06T12:09:12;13.32;;;7.60;;
54743;SDS011;40639;53.170;6.728;2024-01-06T12:11:41;11.55;;;6.75;;
54743;SDS011;40639;53.170;6.728;2024-01-06T12:14:12;11.48;;;6.88;;
54743;SDS011;40639;53.170;6.728;2024-01-06T12:16:38;12.70;;;7.65;;
54743;SDS011;40639;53.170;6.728;2024-01-06T12:19:04;12.30;;;7.15;;
54743;SDS011;40639;53.170;6.728;2024-01-06T12:21:30;12.23;;;6.75;;
54743;SDS011;40639;53.170;6.728;2024-01-06T12:24:17;12.15;;;6.78;;
54743;SDS011;40639;53.170;6.728;2024-01-06T12:26:47;11.35;;;6.50;;
54743;SDS011;40639;53.170;6.728;2024-01-06T12:29:13;11.50;;;6.72;;
54743;SDS011;40639;53.170;6.728;2024-01-06T12:31:40;10.52;;;6.63;;
54743;SDS011;40639;53.170;6.728;2024-01-06T12:34:07;11.80;;;6.60;;
54743;SDS011;40639;53.170;6.728;2024-01-06T12:36:37;9.88;;;5.78;;
54743;SDS011;40639;53.170;6.728;2024-01-06T12:39:04;13.10;;;6.97;;
54743;SDS011;40639;53.170;6.728;2024-01-06T12:41:30;11.10;;;6.68;;
54743;SDS011;40639;53.170;6.728;2024-01-06T12:44:00;10.40;;;5.60;;
54743;SDS011;40639;53.170;6.728;2024-01-06T12:46:27;10.77;;;6.22;;
54743;SDS011;40639;53.170;6.728;2024-01-06T12:48:53;13.07;;;6.63;;
54743;SDS011;40639;53.170;6.728;2024-01-06T12:51:19;10.35;;;6.15;;
54743;SDS011;40639;53.170;6.728;2024-01-06T12:53:45;11.05;;;6.47;;
54743;SDS011;40639;53.170;6.728;2024-01-06T12:56:11;11.48;;;6.05;;
54743;SDS011;40639;53.170;6.728;2024-01-06T12:58:40;10.50;;;5.95;;
54743;SDS011;40639;53.170;6.728;2024-01-06T13:01:06;9.75;;;5.50;;
54743;SDS011;40639;53.170;6.728;2024-01-06T13:03:32;12.57;;;6.75;;
54743;SDS011;40639;53.170;6.728;2024-01-06T13:05:59;10.80;;;5.93;;
54743;SDS011;40639;53.170;6.728;2024-01-06T13:08:25;10.35;;;6.15;;
54743;SDS011;40639;53.170;6.728;2024-01-06T13:10:52;11.35;;;5.80;;
54743;SDS011;40639;53.170;6.728;2024-01-06T13:13:19;12.18;;;6.32;;
54743;SDS011;40639;53.170;6.728;2024-01-06T13:15:45;10.98;;;6.15;;
54743;SDS011;40639;53.170;6.728;2024-01-06T13:18:11;11.35;;;6.57;;
54743;SDS011;40639;53.170;6.728;2024-01-06T13:20:38;13.15;;;6.55;;
54743;SDS011;40639;53.170;6.728;2024-01-06T13:23:06;10.85;;;5.78;;
54743;SDS011;40639;53.170;6.728;2024-01-06T13:25:32;10.65;;;5.95;;
54743;SDS011;40639;53.170;6.728;2024-01-06T13:27:58;11.45;;;6.60;;
54743;SDS011;40639;53.170;6.728;2024-01-06T13:30:25;10.70;;;6.00;;
54743;SDS011;40639;53.170;6.728;2024-01-06T13:32:54;10.77;;;6.22;;
54743;SDS011;40639;53.170;6.728;2024-01-06T13:35:20;12.25;;;6.35;;
54743;SDS011;40639;53.170;6.728;2024-01-06T13:37:50;11.82;;;6.70;;
54743;SDS011;40639;53.170;6.728;2024-01-06T13:40:16;8.90;;;5.82;;
54743;SDS011;40639;53.170;6.728;2024-01-06T13:42:52;11.93;;;6.63;;
54743;SDS011;40639;53.170;6.728;2024-01-06T13:45:19;10.52;;;5.78;;
54743;SDS011;40639;53.170;6.728;2024-01-06T13:47:45;11.93;;;7.03;;
54743;SDS011;40639;53.170;6.728;2024-01-06T13:50:12;12.07;;;6.93;;
54743;SDS011;40639;53.170;6.728;2024-01-06T13:52:38;11.85;;;6.40;;
54743;SDS011;40639;53.170;6.728;2024-01-06T13:55:05;12.57;;;7.25;;
54743;SDS011;40639;53.170;6.728;2024-01-06T13:57:31;14.52;;;7.25;;
54743;SDS011;40639;53.170;6.728;2024-01-06T13:59:58;11.85;;;7.10;;
54743;SDS011;40639;53.170;6.728;2024-01-06T14:02:24;12.80;;;7.22;;
54743;SDS011;40639;53.170;6.728;2024-01-06T14:04:50;13.40;;;7.60;;
54743;SDS011;40639;53.170;6.728;2024-01-06T14:07:17;12.73;;;8.15;;
54743;SDS011;40639;53.170;6.728;2024-01-06T14:09:47;14.05;;;7.47;;
54743;SDS011;40639;53.170;6.728;2024-01-06T14:12:13;11.23;;;6.32;;
54743;SDS011;40639;53.170;6.728;2024-01-06T14:14:40;11.93;;;6.82;;
54743;SDS011;40639;53.170;6.728;2024-01-06T14:17:06;12.02;;;7.15;;
54743;SDS011;40639;53.170;6.728;2024-01-06T14:19:33;14.00;;;6.97;;
54743;SDS011;40639;53.170;6.728;2024-01-06T14:21:59;10.60;;;6.53;;
54743;SDS011;40639;53.170;6.728;2024-01-06T14:24:25;15.05;;;7.70;;
54743;SDS011;40639;53.170;6.728;2024-01-06T14:26:54;15.35;;;8.25;;
54743;SDS011;40639;53.170;6.728;2024-01-06T14:29:21;13.70;;;7.80;;
54743;SDS011;40639;53.170;6.728;2024-01-06T14:31:47;14.05;;;8.23;;
54743;SDS011;40639;53.170;6.728;2024-01-06T14:34:17;16.40;;;8.90;;
54743;SDS011;40639;53.170;6.728;2024-01-06T14:36:43;17.08;;;9.68;;
54743;SDS011;40639;53.170;6.728;2024-01-06T14:39:16;12.75;;;7.40;;